sensor_id;sensor_type;location;lat;lon;timestamp;pressure;altitude;pressure_sealevel;temperature;humidity
34031;BME280;20319;28.466;-16.274;2023-08-08T00:02:18;95443.66;;;19.65;100.00
34031;BME280;20319;28.466;-16.274;2023-08-08T00:04:43;95495.19;;;19.95;100.00
34031;BME280;20319;28.466;-16.274;2023-08-08T00:07:09;95517.00;;;20.21;100.00
34031;BME280;20319;28.466;-16.274;2023-08-08T00:09:35;95512.78;;;20.06;100.00
34031;BME280;20319;28.466;-16.274;2023-08-08T00:12:01;95522.28;;;20.26;100.00
34031;BME280;20319;28.466;-16.274;2023-08-08T00:14:26;95293.97;;;18.84;100.00
34031;BME280;20319;28.466;-16.274;2023-08-08T00:16:52;95481.44;;;20.00;100.00
34031;BME280;20319;28.466;-16.274;2023-08-08T00:19:18;95127.09;;;17.83;100.00
34031;BME280;20319;28.466;-16.274;2023-08-08T00:21:43;95494.22;;;20.00;100.00
34031;BME280;20319;28.466;-16.274;2023-08-08T00:24:09;95293.97;;;18.84;100.00
34031;BME280;20319;28.466;-16.274;2023-08-08T00:26:35;95497.13;;;20.12;100.00
34031;BME280;20319;28.466;-16.274;2023-08-08T00:29:00;95513.47;;;20.20;100.00
34031;BME280;20319;28.466;-16.274;2023-08-08T00:31:26;95150.50;;;18.10;100.00
34031;BME280;20319;28.466;-16.274;2023-08-08T00:33:51;95475.22;;;20.17;100.00
34031;BME280;20319;28.466;-16.274;2023-08-08T00:36:17;95486.44;;;20.15;100.00
34031;BME280;20319;28.466;-16.274;2023-08-08T00:38:43;95434.13;;;19.93;100.00
34031;BME280;20319;28.466;-16.274;2023-08-08T00:41:08;95476.50;;;20.02;100.00
34031;BME280;20319;28.466;-16.274;2023-08-08T00:43:34;95440.00;;;19.78;100.00
34031;BME280;20319;28.466;-16.274;2023-08-08T00:45:59;95270.66;;;18.83;100.00
34031;BME280;20319;28.466;-16.274;2023-08-08T00:48:25;95330.59;;;19.12;100.00
34031;BME280;20319;28.466;-16.274;2023-08-08T00:50:52;95510.44;;;20.22;100.00
34031;BME280;20319;28.466;-16.274;2023-08-08T00:53:18;95497.13;;;20.12;100.00
34031;BME280;20319;28.466;-16.274;2023-08-08T00:55:45;95490.13;;;20.19;100.00
34031;BME280;20319;28.466;-16.274;2023-08-08T00:58:12;95484.47;;;20.07;100.00
34031;BME280;20319;28.466;-16.274;2023-08-08T01:00:38;95297.00;;;18.91;100.00
34031;BME280;20319;28.466;-16.274;2023-08-08T01:03:03;95475.84;;;19.97;100.00
34031;BME280;20319;28.466;-16.274;2023-08-08T01:05:37;95386.13;;;19.54;100.00
34031;BME280;20319;28.466;-16.274;2023-08-08T01:08:06;95447.84;;;19.96;100.00
34031;BME280;20319;28.466;-16.274;2023-08-08T01:10:40;95469.44;;;20.10;100.00
34031;BME280;20319;28.466;-16.274;2023-08-08T01:13:10;95217.00;;;18.63;100.00
34031;BME280;20319;28.466;-16.274;2023-08-08T01:15:37;95442.41;;;19.96;100.00
34031;BME280;20319;28.466;-16.274;2023-08-08T01:18:08;95498.59;;;20.26;100.00
34031;BME280;20319;28.466;-16.274;2023-08-08T01:20:35;95231.72;;;18.79;100.00
34031;BME280;20319;28.466;-16.274;2023-08-08T01:25:52;95416.69;;;19.94;100.00
34031;BME280;20319;28.466;-16.274;2023-08-08T01:28:21;95477.16;;;20.25;100.00
34031;BME280;20319;28.466;-16.274;2023-08-08T01:30:51;95260.47;;;19.06;100.00
34031;BME280;20319;28.466;-16.274;2023-08-08T01:33:16;95429.81;;;20.09;100.00
34031;BME280;20319;28.466;-16.274;2023-08-08T01:35:46;95480.34;;;20.27;100.00
34031;BME280;20319;28.466;-16.274;2023-08-08T01:38:20;95450.59;;;20.22;100.00
34031;BME280;20319;28.466;-16.274;2023-08-08T01:40:48;95403.56;;;19.87;100.00
34031;BME280;20319;28.466;-16.274;2023-08-08T01:43:15;95410.28;;;19.90;100.00
34031;BME280;20319;28.466;-16.274;2023-08-08T01:45:41;95408.84;;;19.92;100.00
34031;BME280;20319;28.466;-16.274;2023-08-08T01:48:09;95343.94;;;19.57;100.00
34031;BME280;20319;28.466;-16.274;2023-08-08T01:50:35;95406.44;;;19.91;100.00
34031;BME280;20319;28.466;-16.274;2023-08-08T01:53:02;95446.41;;;20.07;100.00
34031;BME280;20319;28.466;-16.274;2023-08-08T01:55:27;95419.84;;;19.79;100.00
34031;BME280;20319;28.466;-16.274;2023-08-08T01:57:53;95209.97;;;18.71;100.00
34031;BME280;20319;28.466;-16.274;2023-08-08T02:00:20;95425.16;;;20.01;100.00
34031;BME280;20319;28.466;-16.274;2023-08-08T02:02:45;95195.28;;;18.46;100.00
34031;BME280;20319;28.466;-16.274;2023-08-08T02:05:11;95425.47;;;19.91;100.00
34031;BME280;20319;28.466;-16.274;2023-08-08T02:07:37;95404.03;;;19.72;100.00
34031;BME280;20319;28.466;-16.274;2023-08-08T02:10:03;95376.84;;;19.55;100.00
34031;BME280;20319;28.466;-16.274;2023-08-08T02:12:28;95432.16;;;19.76;100.00
34031;BME280;20319;28.466;-16.274;2023-08-08T02:14:56;95423.22;;;19.76;100.00
34031;BME280;20319;28.466;-16.274;2023-08-08T02:17:22;95270.63;;;18.66;100.00
34031;BME280;20319;28.466;-16.274;2023-08-08T02:19:47;95400.66;;;19.50;100.00
34031;BME280;20319;28.466;-16.274;2023-08-08T02:22:13;95409.13;;;19.57;100.00
34031;BME280;20319;28.466;-16.274;2023-08-08T02:24:39;95266.00;;;18.67;100.00
34031;BME280;20319;28.466;-16.274;2023-08-08T02:27:04;95426.09;;;19.62;100.00
34031;BME280;20319;28.466;-16.274;2023-08-08T02:29:30;95425.56;;;19.52;100.00
34031;BME280;20319;28.466;-16.274;2023-08-08T02:31:56;95436.59;;;19.47;100.00
34031;BME280;20319;28.466;-16.274;2023-08-08T02:34:21;95389.75;;;19.33;100.00
34031;BME280;20319;28.466;-16.274;2023-08-08T02:36:47;95228.19;;;18.31;100.00
34031;BME280;20319;28.466;-16.274;2023-08-08T02:39:13;95387.81;;;19.25;100.00
34031;BME280;20319;28.466;-16.274;2023-08-08T02:41:39;95423.34;;;19.45;100.00
34031;BME280;20319;28.466;-16.274;2023-08-08T02:44:04;95214.59;;;18.14;100.00
34031;BME280;20319;28.466;-16.274;2023-08-08T02:46:30;95161.84;;;17.81;100.00
34031;BME280;20319;28.466;-16.274;2023-08-08T02:48:56;95139.81;;;17.65;100.00
34031;BME280;20319;28.466;-16.274;2023-08-08T02:51:21;95393.34;;;19.11;100.00
34031;BME280;20319;28.466;-16.274;2023-08-08T02:53:47;95388.09;;;19.14;100.00
34031;BME280;20319;28.466;-16.274;2023-08-08T02:56:12;95233.75;;;18.26;100.00
34031;BME280;20319;28.466;-16.274;2023-08-08T02:58:38;95416.28;;;19.36;100.00
34031;BME280;20319;28.466;-16.274;2023-08-08T03:01:04;95042.81;;;17.06;100.00
34031;BME280;20319;28.466;-16.274;2023-08-08T03:03:29;95212.31;;;18.08;100.00
34031;BME280;20319;28.466;-16.274;2023-08-08T03:05:55;95371.25;;;19.04;100.00
34031;BME280;20319;28.466;-16.274;2023-08-08T03:08:21;95364.88;;;19.00;100.00
34031;BME280;20319;28.466;-16.274;2023-08-08T03:10:46;95192.00;;;17.88;100.00
34031;BME280;20319;28.466;-16.274;2023-08-08T03:13:12;95361.03;;;18.92;100.00
34031;BME280;20319;28.466;-16.274;2023-08-08T03:15:37;95227.31;;;18.05;100.00
34031;BME280;20319;28.466;-16.274;2023-08-08T03:18:03;95398.31;;;19.17;100.00
34031;BME280;20319;28.466;-16.274;2023-08-08T03:20:29;95278.28;;;18.34;100.00
34031;BME280;20319;28.466;-16.274;2023-08-08T03:22:54;95146.31;;;17.64;100.00
34031;BME280;20319;28.466;-16.274;2023-08-08T03:25:20;95366.38;;;19.14;100.00
34031;BME280;20319;28.466;-16.274;2023-08-08T03:27:46;95401.22;;;19.30;100.00
34031;BME280;20319;28.466;-16.274;2023-08-08T03:30:12;95374.00;;;19.12;100.00
34031;BME280;20319;28.466;-16.274;2023-08-08T03:32:37;95191.09;;;18.01;100.00
34031;BME280;20319;28.466;-16.274;2023-08-08T03:35:03;95210.09;;;18.10;100.00
34031;BME280;20319;28.466;-16.274;2023-08-08T03:37:29;95368.56;;;19.04;100.00
34031;BME280;20319;28.466;-16.274;2023-08-08T03:39:55;95385.69;;;19.13;100.00
34031;BME280;20319;28.466;-16.274;2023-08-08T03:42:21;95410.91;;;19.13;100.00
34031;BME280;20319;28.466;-16.274;2023-08-08T03:44:46;95156.19;;;17.60;100.00
34031;BME280;20319;28.466;-16.274;2023-08-08T03:47:12;95154.09;;;17.57;100.00
34031;BME280;20319;28.466;-16.274;2023-08-08T03:49:38;95380.34;;;18.91;100.00
34031;BME280;20319;28.466;-16.274;2023-08-08T03:52:03;95404.88;;;19.17;100.00
34031;BME280;20319;28.466;-16.274;2023-08-08T03:54:29;95279.84;;;18.26;100.00
34031;BME280;20319;28.466;-16.274;2023-08-08T03:56:55;95216.94;;;18.07;100.00
34031;BME280;20319;28.466;-16.274;2023-08-08T03:59:20;95409.88;;;19.32;100.00
34031;BME280;20319;28.466;-16.274;2023-08-08T04:01:46;95410.69;;;19.32;100.00
34031;BME280;20319;28.466;-16.274;2023-08-08T04:04:11;95413.22;;;19.29;100.00
34031;BME280;20319;28.466;-16.274;2023-08-08T04:06:37;95385.38;;;19.23;100.00
34031;BME280;20319;28.466;-16.274;2023-08-08T04:09:03;95380.75;;;19.24;100.00
34031;BME280;20319;28.466;-16.274;2023-08-08T04:11:28;95396.31;;;19.40;100.00
34031;BME280;20319;28.466;-16.274;2023-08-08T04:13:54;95350.06;;;19.14;100.00
34031;BME280;20319;28.466;-16.274;2023-08-08T04:16:19;95388.03;;;19.45;100.00
34031;BME280;20319;28.466;-16.274;2023-08-08T04:18:45;95216.47;;;18.44;100.00
34031;BME280;20319;28.466;-16.274;2023-08-08T04:21:11;95171.72;;;18.16;100.00
34031;BME280;20319;28.466;-16.274;2023-08-08T04:23:36;95190.69;;;18.25;100.00
34031;BME280;20319;28.466;-16.274;2023-08-08T04:26:02;95359.63;;;19.12;100.00
34031;BME280;20319;28.466;-16.274;2023-08-08T04:28:28;95402.72;;;19.36;100.00
34031;BME280;20319;28.466;-16.274;2023-08-08T04:30:53;95380.25;;;19.13;100.00
34031;BME280;20319;28.466;-16.274;2023-08-08T04:33:19;95407.00;;;19.37;100.00
34031;BME280;20319;28.466;-16.274;2023-08-08T04:35:45;95403.19;;;19.46;100.00
34031;BME280;20319;28.466;-16.274;2023-08-08T04:38:14;95201.22;;;18.26;100.00
34031;BME280;20319;28.466;-16.274;2023-08-08T04:40:40;95388.50;;;19.39;100.00
34031;BME280;20319;28.466;-16.274;2023-08-08T04:43:05;95370.44;;;19.34;100.00
34031;BME280;20319;28.466;-16.274;2023-08-08T04:45:31;95356.50;;;19.27;100.00
34031;BME280;20319;28.466;-16.274;2023-08-08T04:47:57;95377.47;;;19.35;100.00
34031;BME280;20319;28.466;-16.274;2023-08-08T04:50:23;95162.41;;;18.00;99.96
34031;BME280;20319;28.466;-16.274;2023-08-08T04:52:49;95384.31;;;19.33;99.57
34031;BME280;20319;28.466;-16.274;2023-08-08T04:55:14;95404.63;;;19.35;99.62
34031;BME280;20319;28.466;-16.274;2023-08-08T04:57:40;95373.22;;;19.12;100.00
34031;BME280;20319;28.466;-16.274;2023-08-08T05:00:06;95220.84;;;18.23;100.00
34031;BME280;20319;28.466;-16.274;2023-08-08T05:02:34;95402.47;;;19.24;100.00
34031;BME280;20319;28.466;-16.274;2023-08-08T05:05:00;95370.50;;;19.12;100.00
34031;BME280;20319;28.466;-16.274;2023-08-08T05:07:26;95404.09;;;19.25;100.00
34031;BME280;20319;28.466;-16.274;2023-08-08T05:09:52;95343.00;;;18.96;100.00
34031;BME280;20319;28.466;-16.274;2023-08-08T05:12:18;95360.41;;;19.04;100.00
34031;BME280;20319;28.466;-16.274;2023-08-08T05:14:43;95198.56;;;17.96;100.00
34031;BME280;20319;28.466;-16.274;2023-08-08T05:17:09;95403.69;;;19.00;100.00
34031;BME280;20319;28.466;-16.274;2023-08-08T05:19:34;95215.28;;;17.89;100.00
34031;BME280;20319;28.466;-16.274;2023-08-08T05:22:00;95168.91;;;17.60;100.00
34031;BME280;20319;28.466;-16.274;2023-08-08T05:24:26;95418.84;;;19.01;100.00
34031;BME280;20319;28.466;-16.274;2023-08-08T05:26:52;95406.56;;;19.04;100.00
34031;BME280;20319;28.466;-16.274;2023-08-08T05:29:19;95217.69;;;17.91;100.00
34031;BME280;20319;28.466;-16.274;2023-08-08T05:31:45;95385.47;;;18.92;100.00
34031;BME280;20319;28.466;-16.274;2023-08-08T05:34:11;95257.31;;;18.17;100.00
34031;BME280;20319;28.466;-16.274;2023-08-08T05:36:36;95412.16;;;19.07;100.00
34031;BME280;20319;28.466;-16.274;2023-08-08T05:39:02;95413.00;;;19.17;100.00
34031;BME280;20319;28.466;-16.274;2023-08-08T05:41:28;95225.81;;;17.99;100.00
34031;BME280;20319;28.466;-16.274;2023-08-08T05:43:54;95410.28;;;19.17;100.00
34031;BME280;20319;28.466;-16.274;2023-08-08T05:46:19;95416.03;;;19.24;100.00
34031;BME280;20319;28.466;-16.274;2023-08-08T05:48:45;95397.81;;;19.07;100.00
34031;BME280;20319;28.466;-16.274;2023-08-08T05:51:11;95247.09;;;18.14;100.00
34031;BME280;20319;28.466;-16.274;2023-08-08T05:53:37;95422.59;;;19.23;100.00
34031;BME280;20319;28.466;-16.274;2023-08-08T05:56:03;95409.88;;;19.32;100.00
34031;BME280;20319;28.466;-16.274;2023-08-08T05:58:29;95416.09;;;19.32;100.00
34031;BME280;20319;28.466;-16.274;2023-08-08T06:00:55;95196.13;;;17.86;100.00
34031;BME280;20319;28.466;-16.274;2023-08-08T06:03:20;95423.69;;;19.13;100.00
34031;BME280;20319;28.466;-16.274;2023-08-08T06:05:46;95417.84;;;19.28;100.00
34031;BME280;20319;28.466;-16.274;2023-08-08T06:08:12;95223.16;;;18.08;100.00
34031;BME280;20319;28.466;-16.274;2023-08-08T06:10:38;95270.31;;;18.37;100.00
34031;BME280;20319;28.466;-16.274;2023-08-08T06:13:04;95239.47;;;18.16;100.00
34031;BME280;20319;28.466;-16.274;2023-08-08T06:15:30;95441.53;;;19.45;100.00
34031;BME280;20319;28.466;-16.274;2023-08-08T06:17:57;95404.88;;;19.25;100.00
34031;BME280;20319;28.466;-16.274;2023-08-08T06:20:23;95436.75;;;19.42;100.00
34031;BME280;20319;28.466;-16.274;2023-08-08T06:22:49;95285.84;;;18.45;100.00
34031;BME280;20319;28.466;-16.274;2023-08-08T06:25:14;95275.00;;;18.45;100.00
34031;BME280;20319;28.466;-16.274;2023-08-08T06:27:40;95455.94;;;19.54;100.00
34031;BME280;20319;28.466;-16.274;2023-08-08T06:30:06;95420.63;;;19.45;100.00
34031;BME280;20319;28.466;-16.274;2023-08-08T06:32:33;95403.81;;;19.35;99.31
34031;BME280;20319;28.466;-16.274;2023-08-08T06:34:59;95400.00;;;19.36;99.11
34031;BME280;20319;28.466;-16.274;2023-08-08T06:37:25;95442.81;;;19.39;98.96
34031;BME280;20319;28.466;-16.274;2023-08-08T06:39:50;95456.72;;;19.46;99.14
34031;BME280;20319;28.466;-16.274;2023-08-08T06:42:16;95452.59;;;19.57;98.81
34031;BME280;20319;28.466;-16.274;2023-08-08T06:44:43;95393.22;;;19.25;98.64
34031;BME280;20319;28.466;-16.274;2023-08-08T06:47:09;95443.78;;;19.51;98.48
34031;BME280;20319;28.466;-16.274;2023-08-08T06:49:36;95262.16;;;18.29;98.58
34031;BME280;20319;28.466;-16.274;2023-08-08T06:52:02;95227.31;;;18.05;98.34
34031;BME280;20319;28.466;-16.274;2023-08-08T06:54:27;95241.81;;;18.09;98.46
34031;BME280;20319;28.466;-16.274;2023-08-08T06:56:56;95242.13;;;18.08;98.49
34031;BME280;20319;28.466;-16.274;2023-08-08T06:59:23;95447.03;;;19.23;98.78
34031;BME280;20319;28.466;-16.274;2023-08-08T07:01:49;95228.06;;;17.97;98.88
34031;BME280;20319;28.466;-16.274;2023-08-08T07:04:16;95457.34;;;19.12;99.19
34031;BME280;20319;28.466;-16.274;2023-08-08T07:06:43;95438.03;;;19.05;98.92
34031;BME280;20319;28.466;-16.274;2023-08-08T07:09:10;95449.06;;;19.08;99.07
34031;BME280;20319;28.466;-16.274;2023-08-08T07:11:37;95408.56;;;18.90;99.01
34031;BME280;20319;28.466;-16.274;2023-08-08T07:14:02;95436.13;;;19.14;98.99
34031;BME280;20319;28.466;-16.274;2023-08-08T07:16:28;95491.09;;;19.20;98.95
34031;BME280;20319;28.466;-16.274;2023-08-08T07:18:54;95450.28;;;19.02;99.07
34031;BME280;20319;28.466;-16.274;2023-08-08T07:21:19;95251.25;;;17.81;98.85
34031;BME280;20319;28.466;-16.274;2023-08-08T07:23:45;95472.00;;;19.02;99.29
34031;BME280;20319;28.466;-16.274;2023-08-08T07:26:11;95432.69;;;18.91;99.28
34031;BME280;20319;28.466;-16.274;2023-08-08T07:28:37;95493.00;;;19.19;99.42
34031;BME280;20319;28.466;-16.274;2023-08-08T07:31:03;95287.25;;;18.04;99.51
34031;BME280;20319;28.466;-16.274;2023-08-08T07:33:28;95459.13;;;19.08;99.56
34031;BME280;20319;28.466;-16.274;2023-08-08T07:35:54;95387.06;;;18.63;99.56
34031;BME280;20319;28.466;-16.274;2023-08-08T07:38:19;95485.53;;;19.25;99.84
34031;BME280;20319;28.466;-16.274;2023-08-08T07:40:45;95444.34;;;18.92;100.00
34031;BME280;20319;28.466;-16.274;2023-08-08T07:43:11;95282.25;;;17.97;99.99
34031;BME280;20319;28.466;-16.274;2023-08-08T07:45:37;95474.31;;;19.17;100.00
34031;BME280;20319;28.466;-16.274;2023-08-08T07:48:04;95475.47;;;19.25;100.00
34031;BME280;20319;28.466;-16.274;2023-08-08T07:50:30;95483.19;;;19.32;100.00
34031;BME280;20319;28.466;-16.274;2023-08-08T07:52:56;95492.16;;;19.32;100.00
34031;BME280;20319;28.466;-16.274;2023-08-08T07:55:22;95307.56;;;18.23;100.00
34031;BME280;20319;28.466;-16.274;2023-08-08T07:57:47;95492.47;;;19.39;100.00
34031;BME280;20319;28.466;-16.274;2023-08-08T08:00:13;95535.19;;;19.56;100.00
34031;BME280;20319;28.466;-16.274;2023-08-08T08:02:43;95273.72;;;18.12;100.00
34031;BME280;20319;28.466;-16.274;2023-08-08T08:05:09;95269.72;;;18.10;100.00
34031;BME280;20319;28.466;-16.274;2023-08-08T08:07:35;95334.72;;;18.54;100.00
34031;BME280;20319;28.466;-16.274;2023-08-08T08:10:02;95487.56;;;19.50;100.00
34031;BME280;20319;28.466;-16.274;2023-08-08T08:12:30;95521.16;;;19.71;100.00
34031;BME280;20319;28.466;-16.274;2023-08-08T08:14:55;95342.56;;;18.64;100.00
34031;BME280;20319;28.466;-16.274;2023-08-08T08:17:21;95503.59;;;19.68;100.00
34031;BME280;20319;28.466;-16.274;2023-08-08T08:19:47;95523.59;;;19.81;100.00
34031;BME280;20319;28.466;-16.274;2023-08-08T08:22:12;95515.63;;;19.84;100.00
34031;BME280;20319;28.466;-16.274;2023-08-08T08:24:38;95503.91;;;19.67;100.00
34031;BME280;20319;28.466;-16.274;2023-08-08T08:27:04;95543.94;;;19.92;100.00
34031;BME280;20319;28.466;-16.274;2023-08-08T08:29:29;95463.31;;;19.62;99.94
34031;BME280;20319;28.466;-16.274;2023-08-08T08:31:56;95507.16;;;19.86;99.38
34031;BME280;20319;28.466;-16.274;2023-08-08T08:34:22;95500.78;;;19.99;98.99
34031;BME280;20319;28.466;-16.274;2023-08-08T08:36:48;95484.63;;;20.11;98.30
34031;BME280;20319;28.466;-16.274;2023-08-08T08:39:13;95391.75;;;19.83;97.26
34031;BME280;20319;28.466;-16.274;2023-08-08T08:41:39;95342.97;;;19.70;96.12
34031;BME280;20319;28.466;-16.274;2023-08-08T08:44:05;95342.19;;;19.78;94.86
34031;BME280;20319;28.466;-16.274;2023-08-08T08:46:35;95545.63;;;21.04;93.62
34031;BME280;20319;28.466;-16.274;2023-08-08T08:49:02;95514.72;;;20.91;92.79
34031;BME280;20319;28.466;-16.274;2023-08-08T08:51:31;95400.19;;;20.41;92.40
34031;BME280;20319;28.466;-16.274;2023-08-08T08:53:58;95551.94;;;21.33;91.96
34031;BME280;20319;28.466;-16.274;2023-08-08T08:56:24;95530.13;;;21.50;91.05
34031;BME280;20319;28.466;-16.274;2023-08-08T08:58:50;95508.34;;;21.79;89.87
34031;BME280;20319;28.466;-16.274;2023-08-08T09:01:16;95409.84;;;21.31;88.51
34031;BME280;20319;28.466;-16.274;2023-08-08T09:03:44;95535.56;;;22.17;86.91
34031;BME280;20319;28.466;-16.274;2023-08-08T09:06:11;95540.09;;;22.34;86.21
34031;BME280;20319;28.466;-16.274;2023-08-08T09:08:37;95375.75;;;21.46;84.84
34031;BME280;20319;28.466;-16.274;2023-08-08T09:11:02;95373.38;;;21.44;84.72
34031;BME280;20319;28.466;-16.274;2023-08-08T09:13:36;95340.31;;;21.25;84.27
34031;BME280;20319;28.466;-16.274;2023-08-08T09:16:05;95546.41;;;22.46;83.80
34031;BME280;20319;28.466;-16.274;2023-08-08T09:18:31;95487.78;;;22.11;84.01
34031;BME280;20319;28.466;-16.274;2023-08-08T09:20:58;95319.03;;;20.90;83.55
34031;BME280;20319;28.466;-16.274;2023-08-08T09:23:23;95370.44;;;20.91;84.10
34031;BME280;20319;28.466;-16.274;2023-08-08T09:25:49;95513.50;;;21.72;84.87
34031;BME280;20319;28.466;-16.274;2023-08-08T09:28:15;95348.13;;;20.60;85.16
34031;BME280;20319;28.466;-16.274;2023-08-08T09:30:42;95540.94;;;21.67;85.56
34031;BME280;20319;28.466;-16.274;2023-08-08T09:33:07;95404.44;;;20.77;85.26
34031;BME280;20319;28.466;-16.274;2023-08-08T09:35:33;95514.59;;;21.42;85.62
34031;BME280;20319;28.466;-16.274;2023-08-08T09:37:59;95548.78;;;21.69;85.67
34031;BME280;20319;28.466;-16.274;2023-08-08T09:40:25;95356.78;;;20.62;84.76
34031;BME280;20319;28.466;-16.274;2023-08-08T09:42:52;95358.34;;;20.63;84.80
34031;BME280;20319;28.466;-16.274;2023-08-08T09:45:20;95342.56;;;20.48;84.17
34031;BME280;20319;28.466;-16.274;2023-08-08T09:47:52;95510.38;;;21.53;83.77
34031;BME280;20319;28.466;-16.274;2023-08-08T09:50:18;95505.22;;;21.60;83.82
34031;BME280;20319;28.466;-16.274;2023-08-08T09:52:45;95367.81;;;20.66;83.55
34031;BME280;20319;28.466;-16.274;2023-08-08T09:55:12;95538.56;;;21.57;82.98
34031;BME280;20319;28.466;-16.274;2023-08-08T09:57:41;95519.66;;;21.52;83.07
34031;BME280;20319;28.466;-16.274;2023-08-08T10:00:08;95550.38;;;21.70;83.38
34031;BME280;20319;28.466;-16.274;2023-08-08T10:02:45;95518.25;;;21.46;83.30
34031;BME280;20319;28.466;-16.274;2023-08-08T10:05:14;95540.63;;;21.60;83.26
34031;BME280;20319;28.466;-16.274;2023-08-08T10:07:40;95523.84;;;21.50;83.05
34031;BME280;20319;28.466;-16.274;2023-08-08T10:10:07;95550.56;;;21.65;83.41
34031;BME280;20319;28.466;-16.274;2023-08-08T10:12:36;95546.78;;;21.49;83.67
34031;BME280;20319;28.466;-16.274;2023-08-08T10:15:03;95559.88;;;21.55;83.93
34031;BME280;20319;28.466;-16.274;2023-08-08T10:17:35;95559.06;;;21.63;84.12
34031;BME280;20319;28.466;-16.274;2023-08-08T10:20:01;95545.31;;;21.60;84.13
34031;BME280;20319;28.466;-16.274;2023-08-08T10:22:35;95561.84;;;21.46;84.25
34031;BME280;20319;28.466;-16.274;2023-08-08T10:25:03;95368.19;;;20.38;83.81
34031;BME280;20319;28.466;-16.274;2023-08-08T10:27:34;95556.53;;;21.58;83.82
34031;BME280;20319;28.466;-16.274;2023-08-08T10:30:05;95515.94;;;21.28;83.88
34031;BME280;20319;28.466;-16.274;2023-08-08T10:32:40;95370.28;;;20.33;83.70
34031;BME280;20319;28.466;-16.274;2023-08-08T10:35:07;95535.25;;;21.43;84.11
34031;BME280;20319;28.466;-16.274;2023-08-08T10:37:35;95515.09;;;21.36;83.72
34031;BME280;20319;28.466;-16.274;2023-08-08T10:40:02;95552.41;;;21.44;83.51
34031;BME280;20319;28.466;-16.274;2023-08-08T10:42:32;95413.41;;;20.69;83.51
34031;BME280;20319;28.466;-16.274;2023-08-08T10:44:59;95545.66;;;21.50;83.81
34031;BME280;20319;28.466;-16.274;2023-08-08T10:47:34;95577.97;;;21.68;83.00
34031;BME280;20319;28.466;-16.274;2023-08-08T10:52:30;95570.91;;;21.76;82.49
34031;BME280;20319;28.466;-16.274;2023-08-08T10:54:56;95553.59;;;21.63;81.92
34031;BME280;20319;28.466;-16.274;2023-08-08T10:57:25;95513.44;;;21.52;81.83
34031;BME280;20319;28.466;-16.274;2023-08-08T10:59:52;95393.06;;;20.75;81.69
34031;BME280;20319;28.466;-16.274;2023-08-08T11:02:20;95531.13;;;21.66;80.85
34031;BME280;20319;28.466;-16.274;2023-08-08T11:04:46;95379.34;;;20.63;80.67
34031;BME280;20319;28.466;-16.274;2023-08-08T11:07:14;95544.75;;;21.75;80.88
34031;BME280;20319;28.466;-16.274;2023-08-08T11:09:41;95572.09;;;21.95;81.25
34031;BME280;20319;28.466;-16.274;2023-08-08T11:12:14;95584.06;;;22.03;81.47
34031;BME280;20319;28.466;-16.274;2023-08-08T11:14:40;95598.53;;;22.04;81.33
34031;BME280;20319;28.466;-16.274;2023-08-08T11:17:06;95553.66;;;21.92;81.90
34031;BME280;20319;28.466;-16.274;2023-08-08T11:19:38;95404.84;;;20.96;82.33
34031;BME280;20319;28.466;-16.274;2023-08-08T11:22:09;95568.38;;;22.00;82.41
34031;BME280;20319;28.466;-16.274;2023-08-08T11:24:36;95570.31;;;22.00;82.66
34031;BME280;20319;28.466;-16.274;2023-08-08T11:27:01;95555.34;;;21.76;82.79
34031;BME280;20319;28.466;-16.274;2023-08-08T11:29:27;95582.63;;;22.06;83.30
34031;BME280;20319;28.466;-16.274;2023-08-08T11:31:57;95556.22;;;21.98;84.28
34031;BME280;20319;28.466;-16.274;2023-08-08T11:34:24;95398.13;;;20.93;84.30
34031;BME280;20319;28.466;-16.274;2023-08-08T11:36:50;95555.91;;;21.90;84.52
34031;BME280;20319;28.466;-16.274;2023-08-08T11:39:16;95581.78;;;22.14;84.41
34031;BME280;20319;28.466;-16.274;2023-08-08T11:41:42;95566.47;;;22.01;83.79
34031;BME280;20319;28.466;-16.274;2023-08-08T11:44:08;95543.72;;;21.97;83.78
34031;BME280;20319;28.466;-16.274;2023-08-08T11:46:34;95556.56;;;21.87;83.65
34031;BME280;20319;28.466;-16.274;2023-08-08T11:49:04;95553.47;;;21.98;83.93
34031;BME280;20319;28.466;-16.274;2023-08-08T11:51:32;95227.69;;;19.96;84.00
34031;BME280;20319;28.466;-16.274;2023-08-08T11:53:59;95585.44;;;22.18;84.60
34031;BME280;20319;28.466;-16.274;2023-08-08T11:56:26;95581.50;;;22.07;85.00
34031;BME280;20319;28.466;-16.274;2023-08-08T11:58:52;95570.59;;;22.07;84.93
34031;BME280;20319;28.466;-16.274;2023-08-08T12:01:22;95410.53;;;21.20;84.66
34031;BME280;20319;28.466;-16.274;2023-08-08T12:03:48;95573.69;;;22.26;85.00
34031;BME280;20319;28.466;-16.274;2023-08-08T12:06:15;95580.44;;;22.28;85.82
34031;BME280;20319;28.466;-16.274;2023-08-08T12:08:45;95545.19;;;22.15;86.24
34031;BME280;20319;28.466;-16.274;2023-08-08T12:11:12;95554.59;;;22.26;85.63
34031;BME280;20319;28.466;-16.274;2023-08-08T12:13:43;95574.38;;;22.43;85.96
34031;BME280;20319;28.466;-16.274;2023-08-08T12:16:10;95555.00;;;22.36;85.50
34031;BME280;20319;28.466;-16.274;2023-08-08T12:18:37;95539.75;;;22.35;85.26
34031;BME280;20319;28.466;-16.274;2023-08-08T12:21:07;95475.03;;;22.24;85.30
34031;BME280;20319;28.466;-16.274;2023-08-08T12:23:34;95550.25;;;22.74;84.66
34031;BME280;20319;28.466;-16.274;2023-08-08T12:26:02;95354.94;;;21.70;83.70
34031;BME280;20319;28.466;-16.274;2023-08-08T12:28:28;95556.22;;;23.21;83.22
34031;BME280;20319;28.466;-16.274;2023-08-08T12:30:54;95438.84;;;22.68;82.92
34031;BME280;20319;28.466;-16.274;2023-08-08T12:33:20;95543.13;;;23.47;82.35
34031;BME280;20319;28.466;-16.274;2023-08-08T12:35:47;95586.56;;;23.73;82.55
34031;BME280;20319;28.466;-16.274;2023-08-08T12:38:13;95507.81;;;23.54;82.49